sensor_id;sensor_type;location;lat;lon;timestamp;P1;durP1;ratioP1;P2;durP2;ratioP2
14748;SDS011;7466;53.574;9.976;2023-05-03T00:01:40;7.63;;;2.70;;
14748;SDS011;7466;53.574;9.976;2023-05-03T00:04:08;5.47;;;2.53;;
14748;SDS011;7466;53.574;9.976;2023-05-03T00:06:36;3.93;;;2.63;;
14748;SDS011;7466;53.574;9.976;2023-05-03T00:09:03;10.10;;;2.70;;
14748;SDS011;7466;53.574;9.976;2023-05-03T00:11:30;8.77;;;2.40;;
14748;SDS011;7466;53.574;9.976;2023-05-03T00:14:00;4.43;;;2.70;;
14748;SDS011;7466;53.574;9.976;2023-05-03T00:16:27;7.00;;;2.83;;
14748;SDS011;7466;53.574;9.976;2023-05-03T00:18:54;5.80;;;2.63;;
14748;SDS011;7466;53.574;9.976;2023-05-03T00:21:21;4.30;;;2.60;;
14748;SDS011;7466;53.574;9.976;2023-05-03T00:23:48;8.70;;;2.70;;
14748;SDS011;7466;53.574;9.976;2023-05-03T00:26:19;8.13;;;2.80;;
14748;SDS011;7466;53.574;9.976;2023-05-03T00:28:46;10.17;;;4.70;;
14748;SDS011;7466;53.574;9.976;2023-05-03T00:31:14;3.67;;;2.80;;
14748;SDS011;7466;53.574;9.976;2023-05-03T00:33:41;5.73;;;2.30;;
14748;SDS011;7466;53.574;9.976;2023-05-03T00:36:08;4.90;;;2.93;;
14748;SDS011;7466;53.574;9.976;2023-05-03T00:38:37;6.53;;;2.73;;
14748;SDS011;7466;53.574;9.976;2023-05-03T00:41:05;7.77;;;2.70;;
14748;SDS011;7466;53.574;9.976;2023-05-03T00:43:34;4.20;;;2.73;;
14748;SDS011;7466;53.574;9.976;2023-05-03T00:46:01;7.33;;;2.57;;
14748;SDS011;7466;53.574;9.976;2023-05-03T00:48:33;7.70;;;3.40;;
14748;SDS011;7466;53.574;9.976;2023-05-03T00:51:01;6.73;;;2.67;;
14748;SDS011;7466;53.574;9.976;2023-05-03T00:53:29;4.70;;;2.80;;
14748;SDS011;7466;53.574;9.976;2023-05-03T00:55:56;4.63;;;2.77;;
14748;SDS011;7466;53.574;9.976;2023-05-03T00:58:30;6.20;;;2.97;;
14748;SDS011;7466;53.574;9.976;2023-05-03T01:00:59;4.83;;;2.63;;
14748;SDS011;7466;53.574;9.976;2023-05-03T01:03:31;8.77;;;2.80;;
14748;SDS011;7466;53.574;9.976;2023-05-03T01:06:07;5.00;;;2.83;;
14748;SDS011;7466;53.574;9.976;2023-05-03T01:08:43;5.27;;;2.50;;
14748;SDS011;7466;53.574;9.976;2023-05-03T01:11:13;4.50;;;2.73;;
14748;SDS011;7466;53.574;9.976;2023-05-03T01:13:47;6.83;;;2.80;;
14748;SDS011;7466;53.574;9.976;2023-05-03T01:16:35;4.50;;;2.63;;
14748;SDS011;7466;53.574;9.976;2023-05-03T01:19:12;5.80;;;2.47;;
14748;SDS011;7466;53.574;9.976;2023-05-03T01:21:46;9.40;;;2.70;;
14748;SDS011;7466;53.574;9.976;2023-05-03T01:24:17;6.67;;;2.70;;
14748;SDS011;7466;53.574;9.976;2023-05-03T01:26:55;10.80;;;2.67;;
14748;SDS011;7466;53.574;9.976;2023-05-03T01:29:23;8.20;;;2.90;;
14748;SDS011;7466;53.574;9.976;2023-05-03T01:31:50;5.53;;;2.70;;
14748;SDS011;7466;53.574;9.976;2023-05-03T01:34:24;3.27;;;2.40;;
14748;SDS011;7466;53.574;9.976;2023-05-03T01:36:58;5.57;;;2.70;;
14748;SDS011;7466;53.574;9.976;2023-05-03T01:39:30;8.00;;;2.87;;
14748;SDS011;7466;53.574;9.976;2023-05-03T01:42:02;9.13;;;2.83;;
14748;SDS011;7466;53.574;9.976;2023-05-03T01:44:30;5.63;;;2.77;;
14748;SDS011;7466;53.574;9.976;2023-05-03T01:46:59;4.90;;;2.80;;
14748;SDS011;7466;53.574;9.976;2023-05-03T01:49:27;6.63;;;2.93;;
14748;SDS011;7466;53.574;9.976;2023-05-03T01:51:54;3.83;;;2.63;;
14748;SDS011;7466;53.574;9.976;2023-05-03T01:54:21;8.57;;;2.80;;
14748;SDS011;7466;53.574;9.976;2023-05-03T01:56:48;7.10;;;2.70;;
14748;SDS011;7466;53.574;9.976;2023-05-03T01:59:16;5.50;;;2.53;;
14748;SDS011;7466;53.574;9.976;2023-05-03T02:01:43;6.50;;;2.50;;
14748;SDS011;7466;53.574;9.976;2023-05-03T02:04:09;9.47;;;2.73;;
14748;SDS011;7466;53.574;9.976;2023-05-03T02:06:36;8.03;;;2.73;;
14748;SDS011;7466;53.574;9.976;2023-05-03T02:09:03;9.10;;;2.60;;
14748;SDS011;7466;53.574;9.976;2023-05-03T02:11:30;7.13;;;2.70;;
14748;SDS011;7466;53.574;9.976;2023-05-03T02:13:57;5.90;;;2.67;;
14748;SDS011;7466;53.574;9.976;2023-05-03T02:16:25;3.83;;;2.57;;
14748;SDS011;7466;53.574;9.976;2023-05-03T02:18:51;6.80;;;2.50;;
14748;SDS011;7466;53.574;9.976;2023-05-03T02:21:19;5.63;;;2.53;;
14748;SDS011;7466;53.574;9.976;2023-05-03T02:23:46;4.67;;;2.67;;
14748;SDS011;7466;53.574;9.976;2023-05-03T02:26:13;6.83;;;2.73;;
14748;SDS011;7466;53.574;9.976;2023-05-03T02:28:40;4.80;;;2.30;;
14748;SDS011;7466;53.574;9.976;2023-05-03T02:31:07;3.17;;;2.40;;
14748;SDS011;7466;53.574;9.976;2023-05-03T02:33:35;4.60;;;2.73;;
14748;SDS011;7466;53.574;9.976;2023-05-03T02:36:03;4.80;;;2.60;;
14748;SDS011;7466;53.574;9.976;2023-05-03T02:38:31;6.67;;;2.87;;
14748;SDS011;7466;53.574;9.976;2023-05-03T02:40:58;7.57;;;3.00;;
14748;SDS011;7466;53.574;9.976;2023-05-03T02:43:26;6.60;;;2.80;;
14748;SDS011;7466;53.574;9.976;2023-05-03T02:45:53;3.83;;;2.90;;
14748;SDS011;7466;53.574;9.976;2023-05-03T02:48:21;6.53;;;2.70;;
14748;SDS011;7466;53.574;9.976;2023-05-03T02:50:49;5.40;;;3.20;;
14748;SDS011;7466;53.574;9.976;2023-05-03T02:53:16;5.33;;;3.27;;
14748;SDS011;7466;53.574;9.976;2023-05-03T02:55:43;10.70;;;3.67;;
14748;SDS011;7466;53.574;9.976;2023-05-03T02:58:10;9.27;;;3.50;;
14748;SDS011;7466;53.574;9.976;2023-05-03T03:00:42;5.83;;;3.27;;
14748;SDS011;7466;53.574;9.976;2023-05-03T03:03:09;7.47;;;4.00;;
14748;SDS011;7466;53.574;9.976;2023-05-03T03:05:36;6.23;;;3.50;;
14748;SDS011;7466;53.574;9.976;2023-05-03T03:08:05;9.73;;;4.73;;
14748;SDS011;7466;53.574;9.976;2023-05-03T03:10:32;5.00;;;4.13;;
14748;SDS011;7466;53.574;9.976;2023-05-03T03:12:59;9.37;;;3.87;;
14748;SDS011;7466;53.574;9.976;2023-05-03T03:15:26;9.17;;;4.40;;
14748;SDS011;7466;53.574;9.976;2023-05-03T03:17:52;7.13;;;4.40;;
14748;SDS011;7466;53.574;9.976;2023-05-03T03:20:21;6.50;;;4.63;;
14748;SDS011;7466;53.574;9.976;2023-05-03T03:22:49;5.33;;;4.40;;
14748;SDS011;7466;53.574;9.976;2023-05-03T03:25:18;7.37;;;4.20;;
14748;SDS011;7466;53.574;9.976;2023-05-03T03:27:45;7.37;;;4.30;;
14748;SDS011;7466;53.574;9.976;2023-05-03T03:30:12;6.63;;;4.90;;
14748;SDS011;7466;53.574;9.976;2023-05-03T03:32:39;6.67;;;4.47;;
14748;SDS011;7466;53.574;9.976;2023-05-03T03:35:07;5.57;;;4.37;;
14748;SDS011;7466;53.574;9.976;2023-05-03T03:37:36;8.53;;;4.23;;
14748;SDS011;7466;53.574;9.976;2023-05-03T03:40:04;8.23;;;3.90;;
14748;SDS011;7466;53.574;9.976;2023-05-03T03:42:34;8.00;;;4.00;;
14748;SDS011;7466;53.574;9.976;2023-05-03T03:45:01;5.87;;;3.97;;
14748;SDS011;7466;53.574;9.976;2023-05-03T03:47:29;7.47;;;4.13;;
14748;SDS011;7466;53.574;9.976;2023-05-03T03:49:55;7.50;;;4.07;;
14748;SDS011;7466;53.574;9.976;2023-05-03T03:52:22;6.37;;;3.67;;
14748;SDS011;7466;53.574;9.976;2023-05-03T03:54:49;6.27;;;3.83;;
14748;SDS011;7466;53.574;9.976;2023-05-03T03:57:16;9.77;;;4.10;;
14748;SDS011;7466;53.574;9.976;2023-05-03T03:59:45;7.07;;;4.23;;
14748;SDS011;7466;53.574;9.976;2023-05-03T04:02:13;3.83;;;3.53;;
14748;SDS011;7466;53.574;9.976;2023-05-03T04:04:41;5.30;;;4.33;;
14748;SDS011;7466;53.574;9.976;2023-05-03T04:07:08;8.90;;;4.50;;
14748;SDS011;7466;53.574;9.976;2023-05-03T04:09:35;6.53;;;3.80;;
14748;SDS011;7466;53.574;9.976;2023-05-03T04:12:02;10.93;;;3.60;;
14748;SDS011;7466;53.574;9.976;2023-05-03T04:14:30;5.27;;;4.13;;
14748;SDS011;7466;53.574;9.976;2023-05-03T04:16:58;6.37;;;3.60;;
14748;SDS011;7466;53.574;9.976;2023-05-03T04:19:26;5.73;;;3.87;;
14748;SDS011;7466;53.574;9.976;2023-05-03T04:21:53;8.67;;;4.03;;
14748;SDS011;7466;53.574;9.976;2023-05-03T04:24:19;4.67;;;4.10;;
14748;SDS011;7466;53.574;9.976;2023-05-03T04:26:46;8.67;;;3.70;;
14748;SDS011;7466;53.574;9.976;2023-05-03T04:29:15;8.07;;;3.87;;
14748;SDS011;7466;53.574;9.976;2023-05-03T04:31:44;6.07;;;4.13;;
14748;SDS011;7466;53.574;9.976;2023-05-03T04:34:12;7.47;;;3.90;;
14748;SDS011;7466;53.574;9.976;2023-05-03T04:36:40;5.57;;;3.77;;
14748;SDS011;7466;53.574;9.976;2023-05-03T04:39:09;7.00;;;4.20;;
14748;SDS011;7466;53.574;9.976;2023-05-03T04:41:36;6.93;;;3.90;;
14748;SDS011;7466;53.574;9.976;2023-05-03T04:44:03;13.70;;;4.20;;
14748;SDS011;7466;53.574;9.976;2023-05-03T04:46:30;7.33;;;3.70;;
14748;SDS011;7466;53.574;9.976;2023-05-03T04:48:57;5.80;;;3.60;;
14748;SDS011;7466;53.574;9.976;2023-05-03T04:51:26;5.87;;;3.50;;
14748;SDS011;7466;53.574;9.976;2023-05-03T04:53:53;8.23;;;3.90;;
14748;SDS011;7466;53.574;9.976;2023-05-03T04:56:20;6.47;;;4.10;;
14748;SDS011;7466;53.574;9.976;2023-05-03T04:58:50;5.87;;;3.67;;
14748;SDS011;7466;53.574;9.976;2023-05-03T05:01:17;6.77;;;3.70;;
14748;SDS011;7466;53.574;9.976;2023-05-03T05:03:46;9.97;;;3.90;;
14748;SDS011;7466;53.574;9.976;2023-05-03T05:06:13;9.27;;;4.40;;
14748;SDS011;7466;53.574;9.976;2023-05-03T05:08:41;4.03;;;3.63;;
14748;SDS011;7466;53.574;9.976;2023-05-03T05:11:08;9.03;;;3.37;;
14748;SDS011;7466;53.574;9.976;2023-05-03T05:13:36;7.97;;;3.40;;
14748;SDS011;7466;53.574;9.976;2023-05-03T05:16:04;6.50;;;3.67;;
14748;SDS011;7466;53.574;9.976;2023-05-03T05:18:31;9.30;;;4.40;;
14748;SDS011;7466;53.574;9.976;2023-05-03T05:20:59;9.80;;;4.00;;
14748;SDS011;7466;53.574;9.976;2023-05-03T05:23:26;6.00;;;4.10;;
14748;SDS011;7466;53.574;9.976;2023-05-03T05:26:00;11.97;;;4.33;;
14748;SDS011;7466;53.574;9.976;2023-05-03T05:28:28;6.63;;;4.17;;
14748;SDS011;7466;53.574;9.976;2023-05-03T05:30:56;8.47;;;4.20;;
14748;SDS011;7466;53.574;9.976;2023-05-03T05:33:23;12.93;;;4.10;;
14748;SDS011;7466;53.574;9.976;2023-05-03T05:35:50;9.33;;;3.97;;
14748;SDS011;7466;53.574;9.976;2023-05-03T05:38:17;7.33;;;3.97;;
14748;SDS011;7466;53.574;9.976;2023-05-03T05:40:45;14.33;;;4.43;;
14748;SDS011;7466;53.574;9.976;2023-05-03T05:43:13;9.33;;;4.30;;
14748;SDS011;7466;53.574;9.976;2023-05-03T05:45:41;10.30;;;4.00;;
14748;SDS011;7466;53.574;9.976;2023-05-03T05:48:07;9.77;;;3.77;;
14748;SDS011;7466;53.574;9.976;2023-05-03T05:50:34;7.80;;;3.67;;
14748;SDS011;7466;53.574;9.976;2023-05-03T05:53:01;7.97;;;3.77;;
14748;SDS011;7466;53.574;9.976;2023-05-03T05:55:28;8.30;;;3.60;;
14748;SDS011;7466;53.574;9.976;2023-05-03T05:57:57;6.50;;;3.47;;
14748;SDS011;7466;53.574;9.976;2023-05-03T06:00:25;7.27;;;3.17;;
14748;SDS011;7466;53.574;9.976;2023-05-03T06:02:53;4.50;;;3.30;;
14748;SDS011;7466;53.574;9.976;2023-05-03T06:05:20;7.50;;;3.10;;
14748;SDS011;7466;53.574;9.976;2023-05-03T06:07:48;5.10;;;2.90;;
14748;SDS011;7466;53.574;9.976;2023-05-03T06:10:15;7.80;;;3.07;;
14748;SDS011;7466;53.574;9.976;2023-05-03T06:12:41;10.20;;;3.00;;
14748;SDS011;7466;53.574;9.976;2023-05-03T06:15:10;6.17;;;2.63;;
14748;SDS011;7466;53.574;9.976;2023-05-03T06:17:39;4.03;;;2.40;;
14748;SDS011;7466;53.574;9.976;2023-05-03T06:20:06;7.50;;;2.77;;
14748;SDS011;7466;53.574;9.976;2023-05-03T06:22:35;4.27;;;1.90;;
14748;SDS011;7466;53.574;9.976;2023-05-03T06:25:03;6.87;;;2.50;;
14748;SDS011;7466;53.574;9.976;2023-05-03T06:27:31;4.83;;;2.50;;
14748;SDS011;7466;53.574;9.976;2023-05-03T06:29:58;7.73;;;2.80;;
14748;SDS011;7466;53.574;9.976;2023-05-03T06:32:25;7.33;;;2.47;;
14748;SDS011;7466;53.574;9.976;2023-05-03T06:34:54;4.17;;;2.10;;
14748;SDS011;7466;53.574;9.976;2023-05-03T06:37:23;4.87;;;2.20;;
14748;SDS011;7466;53.574;9.976;2023-05-03T06:39:51;3.70;;;2.10;;
14748;SDS011;7466;53.574;9.976;2023-05-03T06:42:17;3.00;;;1.90;;
14748;SDS011;7466;53.574;9.976;2023-05-03T06:44:44;3.33;;;1.80;;
14748;SDS011;7466;53.574;9.976;2023-05-03T06:47:12;5.20;;;2.23;;
14748;SDS011;7466;53.574;9.976;2023-05-03T06:49:39;3.40;;;2.07;;
14748;SDS011;7466;53.574;9.976;2023-05-03T06:52:07;3.13;;;1.60;;
14748;SDS011;7466;53.574;9.976;2023-05-03T06:54:35;2.77;;;1.40;;
14748;SDS011;7466;53.574;9.976;2023-05-03T06:57:01;2.20;;;1.70;;
14748;SDS011;7466;53.574;9.976;2023-05-03T06:59:29;3.50;;;1.70;;
14748;SDS011;7466;53.574;9.976;2023-05-03T07:01:56;4.47;;;1.80;;
14748;SDS011;7466;53.574;9.976;2023-05-03T07:04:23;4.10;;;1.37;;
14748;SDS011;7466;53.574;9.976;2023-05-03T07:06:50;2.40;;;1.33;;
14748;SDS011;7466;53.574;9.976;2023-05-03T07:09:18;3.80;;;1.37;;
14748;SDS011;7466;53.574;9.976;2023-05-03T07:11:45;2.40;;;1.77;;
14748;SDS011;7466;53.574;9.976;2023-05-03T07:14:15;4.13;;;1.33;;
14748;SDS011;7466;53.574;9.976;2023-05-03T07:16:43;3.97;;;1.40;;
14748;SDS011;7466;53.574;9.976;2023-05-03T07:19:10;3.37;;;1.37;;
14748;SDS011;7466;53.574;9.976;2023-05-03T07:21:37;3.50;;;1.30;;
14748;SDS011;7466;53.574;9.976;2023-05-03T07:24:04;3.07;;;1.40;;
14748;SDS011;7466;53.574;9.976;2023-05-03T07:26:33;3.80;;;1.30;;
14748;SDS011;7466;53.574;9.976;2023-05-03T07:29:00;4.60;;;1.57;;
14748;SDS011;7466;53.574;9.976;2023-05-03T07:31:26;1.47;;;1.37;;
14748;SDS011;7466;53.574;9.976;2023-05-03T07:33:53;2.47;;;1.30;;
14748;SDS011;7466;53.574;9.976;2023-05-03T07:36:21;1.73;;;1.20;;
14748;SDS011;7466;53.574;9.976;2023-05-03T07:38:47;2.27;;;1.20;;
14748;SDS011;7466;53.574;9.976;2023-05-03T07:41:14;2.07;;;1.40;;
14748;SDS011;7466;53.574;9.976;2023-05-03T07:43:43;3.77;;;1.40;;
14748;SDS011;7466;53.574;9.976;2023-05-03T07:46:10;3.60;;;1.73;;
14748;SDS011;7466;53.574;9.976;2023-05-03T07:48:37;5.33;;;1.40;;
14748;SDS011;7466;53.574;9.976;2023-05-03T07:51:04;2.73;;;1.47;;
14748;SDS011;7466;53.574;9.976;2023-05-03T07:53:30;3.40;;;1.80;;
14748;SDS011;7466;53.574;9.976;2023-05-03T07:55:59;3.47;;;1.70;;
14748;SDS011;7466;53.574;9.976;2023-05-03T07:58:26;2.77;;;1.60;;
14748;SDS011;7466;53.574;9.976;2023-05-03T08:00:54;4.50;;;1.50;;
14748;SDS011;7466;53.574;9.976;2023-05-03T08:03:21;4.00;;;1.80;;
14748;SDS011;7466;53.574;9.976;2023-05-03T08:05:48;4.43;;;1.40;;
14748;SDS011;7466;53.574;9.976;2023-05-03T08:08:15;1.47;;;1.20;;
14748;SDS011;7466;53.574;9.976;2023-05-03T08:10:43;4.33;;;1.80;;
14748;SDS011;7466;53.574;9.976;2023-05-03T08:13:10;3.13;;;1.23;;
14748;SDS011;7466;53.574;9.976;2023-05-03T08:15:37;5.37;;;1.47;;
14748;SDS011;7466;53.574;9.976;2023-05-03T08:18:05;2.63;;;1.30;;
14748;SDS011;7466;53.574;9.976;2023-05-03T08:20:32;4.97;;;1.30;;
14748;SDS011;7466;53.574;9.976;2023-05-03T08:23:00;2.77;;;1.10;;
14748;SDS011;7466;53.574;9.976;2023-05-03T08:25:27;2.13;;;1.60;;
14748;SDS011;7466;53.574;9.976;2023-05-03T08:27:54;2.30;;;1.30;;
14748;SDS011;7466;53.574;9.976;2023-05-03T08:30:21;2.23;;;1.40;;
14748;SDS011;7466;53.574;9.976;2023-05-03T08:32:48;4.30;;;1.40;;
14748;SDS011;7466;53.574;9.976;2023-05-03T08:35:16;3.73;;;1.47;;
14748;SDS011;7466;53.574;9.976;2023-05-03T08:37:43;3.60;;;1.60;;
14748;SDS011;7466;53.574;9.976;2023-05-03T08:40:11;8.23;;;1.57;;
14748;SDS011;7466;53.574;9.976;2023-05-03T08:42:39;4.73;;;1.50;;
14748;SDS011;7466;53.574;9.976;2023-05-03T08:45:08;4.17;;;1.63;;
14748;SDS011;7466;53.574;9.976;2023-05-03T08:47:37;2.00;;;1.47;;
14748;SDS011;7466;53.574;9.976;2023-05-03T08:50:06;4.53;;;1.50;;
14748;SDS011;7466;53.574;9.976;2023-05-03T08:52:35;5.23;;;1.60;;
14748;SDS011;7466;53.574;9.976;2023-05-03T08:55:03;2.33;;;1.50;;
14748;SDS011;7466;53.574;9.976;2023-05-03T08:57:32;2.43;;;1.30;;
14748;SDS011;7466;53.574;9.976;2023-05-03T08:59:59;3.63;;;1.40;;
14748;SDS011;7466;53.574;9.976;2023-05-03T09:02:26;3.20;;;1.70;;
14748;SDS011;7466;53.574;9.976;2023-05-03T09:04:53;6.63;;;1.50;;
14748;SDS011;7466;53.574;9.976;2023-05-03T09:07:21;2.80;;;1.50;;
14748;SDS011;7466;53.574;9.976;2023-05-03T09:09:49;2.53;;;1.40;;
14748;SDS011;7466;53.574;9.976;2023-05-03T09:12:33;3.33;;;1.50;;
14748;SDS011;7466;53.574;9.976;2023-05-03T09:15:01;3.17;;;1.60;;
14748;SDS011;7466;53.574;9.976;2023-05-03T09:17:30;2.93;;;1.57;;
14748;SDS011;7466;53.574;9.976;2023-05-03T09:19:58;3.23;;;1.53;;
14748;SDS011;7466;53.574;9.976;2023-05-03T09:22:26;4.37;;;1.80;;
14748;SDS011;7466;53.574;9.976;2023-05-03T09:24:57;2.57;;;1.57;;
14748;SDS011;7466;53.574;9.976;2023-05-03T09:27:25;3.27;;;1.77;;
14748;SDS011;7466;53.574;9.976;2023-05-03T09:29:52;2.53;;;1.53;;
14748;SDS011;7466;53.574;9.976;2023-05-03T09:32:20;5.30;;;1.50;;
14748;SDS011;7466;53.574;9.976;2023-05-03T09:34:49;2.03;;;1.33;;
14748;SDS011;7466;53.574;9.976;2023-05-03T09:37:16;3.83;;;1.50;;
14748;SDS011;7466;53.574;9.976;2023-05-03T09:39:44;3.60;;;1.43;;
14748;SDS011;7466;53.574;9.976;2023-05-03T09:42:13;4.83;;;1.23;;
14748;SDS011;7466;53.574;9.976;2023-05-03T09:44:41;2.13;;;1.30;;
14748;SDS011;7466;53.574;9.976;2023-05-03T09:47:13;1.87;;;1.50;;
14748;SDS011;7466;53.574;9.976;2023-05-03T09:49:40;2.40;;;1.30;;
14748;SDS011;7466;53.574;9.976;2023-05-03T09:52:08;2.80;;;1.30;;
14748;SDS011;7466;53.574;9.976;2023-05-03T09:54:36;2.90;;;1.40;;
14748;SDS011;7466;53.574;9.976;2023-05-03T09:57:04;4.63;;;1.50;;
14748;SDS011;7466;53.574;9.976;2023-05-03T09:59:35;3.00;;;1.27;;
14748;SDS011;7466;53.574;9.976;2023-05-03T10:02:04;3.07;;;1.60;;
14748;SDS011;7466;53.574;9.976;2023-05-03T10:04:35;2.53;;;1.20;;
14748;SDS011;7466;53.574;9.976;2023-05-03T10:07:08;3.53;;;1.30;;
14748;SDS011;7466;53.574;9.976;2023-05-03T10:09:38;2.87;;;1.30;;
14748;SDS011;7466;53.574;9.976;2023-05-03T10:12:08;2.07;;;1.23;;
14748;SDS011;7466;53.574;9.976;2023-05-03T10:14:40;2.50;;;1.50;;
14748;SDS011;7466;53.574;9.976;2023-05-03T10:17:08;1.50;;;1.40;;
14748;SDS011;7466;53.574;9.976;2023-05-03T10:19:46;1.30;;;1.13;;
14748;SDS011;7466;53.574;9.976;2023-05-03T10:22:17;2.93;;;1.43;;
14748;SDS011;7466;53.574;9.976;2023-05-03T10:27:36;2.37;;;1.50;;
14748;SDS011;7466;53.574;9.976;2023-05-03T10:30:11;3.53;;;1.70;;
14748;SDS011;7466;53.574;9.976;2023-05-03T10:32:55;2.47;;;1.40;;
14748;SDS011;7466;53.574;9.976;2023-05-03T10:35:24;3.40;;;1.30;;
14748;SDS011;7466;53.574;9.976;2023-05-03T10:37:52;1.97;;;1.47;;
14748;SDS011;7466;53.574;9.976;2023-05-03T10:40:20;2.27;;;1.23;;
14748;SDS011;7466;53.574;9.976;2023-05-03T10:42:48;3.43;;;1.37;;
14748;SDS011;7466;53.574;9.976;2023-05-03T10:45:22;2.17;;;1.60;;
14748;SDS011;7466;53.574;9.976;2023-05-03T10:50:44;2.47;;;1.57;;
14748;SDS011;7466;53.574;9.976;2023-05-03T10:56:00;2.23;;;1.67;;
14748;SDS011;7466;53.574;9.976;2023-05-03T10:58:29;1.63;;;1.53;;
14748;SDS011;7466;53.574;9.976;2023-05-03T11:01:01;2.13;;;1.50;;
14748;SDS011;7466;53.574;9.976;2023-05-03T11:03:33;2.83;;;1.50;;
14748;SDS011;7466;53.574;9.976;2023-05-03T11:06:08;5.00;;;1.90;;
14748;SDS011;7466;53.574;9.976;2023-05-03T11:08:35;1.63;;;1.50;;
14748;SDS011;7466;53.574;9.976;2023-05-03T11:11:03;2.13;;;1.60;;
14748;SDS011;7466;53.574;9.976;2023-05-03T11:13:33;3.77;;;1.63;;
14748;SDS011;7466;53.574;9.976;2023-05-03T11:16:02;2.27;;;1.57;;
14748;SDS011;7466;53.574;9.976;2023-05-03T11:18:29;2.00;;;1.50;;
14748;SDS011;7466;53.574;9.976;2023-05-03T11:20:57;3.10;;;1.63;;
14748;SDS011;7466;53.574;9.976;2023-05-03T11:23:25;2.03;;;1.70;;
14748;SDS011;7466;53.574;9.976;2023-05-03T11:25:53;2.40;;;1.70;;
14748;SDS011;7466;53.574;9.976;2023-05-03T11:28:21;1.70;;;1.47;;
14748;SDS011;7466;53.574;9.976;2023-05-03T11:30:48;3.67;;;1.57;;
14748;SDS011;7466;53.574;9.976;2023-05-03T11:33:17;2.73;;;1.50;;
14748;SDS011;7466;53.574;9.976;2023-05-03T11:35:44;3.63;;;1.60;;
14748;SDS011;7466;53.574;9.976;2023-05-03T11:38:11;2.40;;;1.60;;
14748;SDS011;7466;53.574;9.976;2023-05-03T11:40:37;2.60;;;1.57;;
14748;SDS011;7466;53.574;9.976;2023-05-03T11:43:05;2.93;;;1.60;;
14748;SDS011;7466;53.574;9.976;2023-05-03T11:45:37;2.30;;;1.70;;
14748;SDS011;7466;53.574;9.976;2023-05-03T11:48:06;2.13;;;1.30;;
14748;SDS011;7466;53.574;9.976;2023-05-03T11:50:44;2.33;;;1.30;;
14748;SDS011;7466;53.574;9.976;2023-05-03T11:53:11;3.30;;;1.60;;
14748;SDS011;7466;53.574;9.976;2023-05-03T11:55:39;2.33;;;1.47;;
14748;SDS011;7466;53.574;9.976;2023-05-03T11:58:07;1.90;;;1.57;;
14748;SDS011;7466;53.574;9.976;2023-05-03T12:00:37;2.83;;;1.30;;
14748;SDS011;7466;53.574;9.976;2023-05-03T12:03:05;3.07;;;1.63;;
14748;SDS011;7466;53.574;9.976;2023-05-03T12:05:33;4.43;;;1.77;;
14748;SDS011;7466;53.574;9.976;2023-05-03T12:08:01;4.07;;;1.50;;
14748;SDS011;7466;53.574;9.976;2023-05-03T12:10:30;3.23;;;1.80;;
14748;SDS011;7466;53.574;9.976;2023-05-03T12:12:58;3.67;;;1.50;;
14748;SDS011;7466;53.574;9.976;2023-05-03T12:15:26;4.80;;;1.93;;
14748;SDS011;7466;53.574;9.976;2023-05-03T12:17:57;3.37;;;1.57;;
14748;SDS011;7466;53.574;9.976;2023-05-03T12:20:25;5.13;;;1.93;;
14748;SDS011;7466;53.574;9.976;2023-05-03T12:22:55;4.33;;;1.80;;
14748;SDS011;7466;53.574;9.976;2023-05-03T12:25:24;1.70;;;1.60;;
14748;SDS011;7466;53.574;9.976;2023-05-03T12:27:52;4.23;;;1.50;;
14748;SDS011;7466;53.574;9.976;2023-05-03T12:30:19;3.10;;;1.53;;
14748;SDS011;7466;53.574;9.976;2023-05-03T12:32:47;2.70;;;1.67;;
14748;SDS011;7466;53.574;9.976;2023-05-03T12:35:14;3.07;;;1.80;;
14748;SDS011;7466;53.574;9.976;2023-05-03T12:37:42;3.53;;;1.80;;
14748;SDS011;7466;53.574;9.976;2023-05-03T12:40:09;2.27;;;1.73;;
14748;SDS011;7466;53.574;9.976;2023-05-03T12:42:38;3.00;;;1.47;;
14748;SDS011;7466;53.574;9.976;2023-05-03T12:45:05;2.15;;;1.63;;
14748;SDS011;7466;53.574;9.976;2023-05-03T12:47:33;4.53;;;1.60;;
14748;SDS011;7466;53.574;9.976;2023-05-03T12:50:01;2.50;;;1.52;;
14748;SDS011;7466;53.574;9.976;2023-05-03T12:52:29;2.08;;;1.70;;
14748;SDS011;7466;53.574;9.976;2023-05-03T12:54:57;3.73;;;1.80;;
14748;SDS011;7466;53.574;9.976;2023-05-03T12:57:24;5.03;;;1.80;;
14748;SDS011;7466;53.574;9.976;2023-05-03T12:59:53;5.73;;;1.93;;
14748;SDS011;7466;53.574;9.976;2023-05-03T13:02:20;2.80;;;1.83;;
14748;SDS011;7466;53.574;9.976;2023-05-03T13:04:48;3.70;;;1.70;;
14748;SDS011;7466;53.574;9.976;2023-05-03T13:07:19;3.67;;;1.60;;
14748;SDS011;7466;53.574;9.976;2023-05-03T13:09:46;2.90;;;1.60;;
14748;SDS011;7466;53.574;9.976;2023-05-03T13:12:13;1.60;;;1.50;;
14748;SDS011;7466;53.574;9.976;2023-05-03T13:14:44;5.80;;;1.90;;
14748;SDS011;7466;53.574;9.976;2023-05-03T13:17:13;2.20;;;1.75;;
14748;SDS011;7466;53.574;9.976;2023-05-03T13:19:42;2.03;;;1.60;;
14748;SDS011;7466;53.574;9.976;2023-05-03T13:22:11;3.25;;;1.55;;
14748;SDS011;7466;53.574;9.976;2023-05-03T13:24:39;3.78;;;1.70;;
14748;SDS011;7466;53.574;9.976;2023-05-03T13:27:06;1.73;;;1.60;;
14748;SDS011;7466;53.574;9.976;2023-05-03T13:29:33;2.80;;;1.75;;
14748;SDS011;7466;53.574;9.976;2023-05-03T13:32:01;3.95;;;1.50;;
14748;SDS011;7466;53.574;9.976;2023-05-03T13:34:29;2.03;;;1.60;;
14748;SDS011;7466;53.574;9.976;2023-05-03T13:36:57;3.83;;;1.52;;
14748;SDS011;7466;53.574;9.976;2023-05-03T13:39:24;2.40;;;1.80;;
14748;SDS011;7466;53.574;9.976;2023-05-03T13:41:51;2.95;;;1.75;;
14748;SDS011;7466;53.574;9.976;2023-05-03T13:44:19;1.80;;;1.65;;
14748;SDS011;7466;53.574;9.976;2023-05-03T13:46:49;2.33;;;1.83;;
14748;SDS011;7466;53.574;9.976;2023-05-03T13:49:17;2.55;;;1.52;;
14748;SDS011;7466;53.574;9.976;2023-05-03T13:51:45;3.80;;;1.90;;
14748;SDS011;7466;53.574;9.976;2023-05-03T13:54:12;3.60;;;1.55;;
14748;SDS011;7466;53.574;9.976;2023-05-03T13:56:39;1.95;;;1.65;;
14748;SDS011;7466;53.574;9.976;2023-05-03T13:59:07;2.70;;;1.85;;
14748;SDS011;7466;53.574;9.976;2023-05-03T14:01:33;4.15;;;1.85;;
14748;SDS011;7466;53.574;9.976;2023-05-03T14:04:01;2.03;;;1.60;;
14748;SDS011;7466;53.574;9.976;2023-05-03T14:06:28;4.10;;;1.98;;
14748;SDS011;7466;53.574;9.976;2023-05-03T14:08:57;2.17;;;1.60;;
14748;SDS011;7466;53.574;9.976;2023-05-03T14:11:25;4.82;;;2.08;;
14748;SDS011;7466;53.574;9.976;2023-05-03T14:13:52;4.13;;;2.00;;
14748;SDS011;7466;53.574;9.976;2023-05-03T14:16:20;2.15;;;1.80;;
14748;SDS011;7466;53.574;9.976;2023-05-03T14:18:48;3.08;;;1.85;;
14748;SDS011;7466;53.574;9.976;2023-05-03T14:21:17;2.05;;;1.85;;
14748;SDS011;7466;53.574;9.976;2023-05-03T14:23:47;3.72;;;1.77;;
14748;SDS011;7466;53.574;9.976;2023-05-03T14:26:16;4.65;;;2.10;;
14748;SDS011;7466;53.574;9.976;2023-05-03T14:28:44;3.03;;;2.08;;
14748;SDS011;7466;53.574;9.976;2023-05-03T14:31:11;1.92;;;1.70;;
14748;SDS011;7466;53.574;9.976;2023-05-03T14:33:39;2.50;;;2.03;;
14748;SDS011;7466;53.574;9.976;2023-05-03T14:36:06;3.80;;;2.10;;
14748;SDS011;7466;53.574;9.976;2023-05-03T14:38:33;1.85;;;1.75;;
14748;SDS011;7466;53.574;9.976;2023-05-03T14:41:01;1.88;;;1.70;;
14748;SDS011;7466;53.574;9.976;2023-05-03T14:43:30;2.35;;;2.03;;
14748;SDS011;7466;53.574;9.976;2023-05-03T14:45:57;3.38;;;1.98;;
14748;SDS011;7466;53.574;9.976;2023-05-03T14:48:24;3.00;;;1.88;;
14748;SDS011;7466;53.574;9.976;2023-05-03T14:50:51;2.60;;;2.08;;
14748;SDS011;7466;53.574;9.976;2023-05-03T14:53:19;2.40;;;2.05;;
14748;SDS011;7466;53.574;9.976;2023-05-03T14:55:46;2.95;;;1.95;;
14748;SDS011;7466;53.574;9.976;2023-05-03T14:58:13;2.33;;;1.90;;
14748;SDS011;7466;53.574;9.976;2023-05-03T15:00:41;2.13;;;2.00;;
14748;SDS011;7466;53.574;9.976;2023-05-03T15:03:09;2.95;;;1.90;;
14748;SDS011;7466;53.574;9.976;2023-05-03T15:05:41;2.63;;;2.30;;
14748;SDS011;7466;53.574;9.976;2023-05-03T15:08:09;2.83;;;1.98;;
14748;SDS011;7466;53.574;9.976;2023-05-03T15:10:38;3.40;;;2.20;;
14748;SDS011;7466;53.574;9.976;2023-05-03T15:13:05;3.63;;;2.33;;
14748;SDS011;7466;53.574;9.976;2023-05-03T15:15:32;3.30;;;2.20;;